sensor_id;sensor_type;location;lat;lon;timestamp;P1;durP1;ratioP1;P2;durP2;ratioP2
2259;SDS011;333;48.800;9.530;2023-03-04T00:02:13;56.40;;;38.20;;
2259;SDS011;333;48.800;9.530;2023-03-04T00:04:41;61.70;;;36.53;;
2259;SDS011;333;48.800;9.530;2023-03-04T00:07:08;60.77;;;35.97;;
2259;SDS011;333;48.800;9.530;2023-03-04T00:09:35;62.47;;;36.30;;
2259;SDS011;333;48.800;9.530;2023-03-04T00:12:02;57.07;;;35.07;;
2259;SDS011;333;48.800;9.530;2023-03-04T00:14:33;56.00;;;36.10;;
2259;SDS011;333;48.800;9.530;2023-03-04T00:17:00;59.33;;;35.37;;
2259;SDS011;333;48.800;9.530;2023-03-04T00:19:28;55.50;;;35.27;;
2259;SDS011;333;48.800;9.530;2023-03-04T00:21:55;56.60;;;37.53;;
2259;SDS011;333;48.800;9.530;2023-03-04T00:24:22;55.00;;;35.50;;
2259;SDS011;333;48.800;9.530;2023-03-04T00:26:50;58.13;;;34.63;;
2259;SDS011;333;48.800;9.530;2023-03-04T00:29:17;56.63;;;36.10;;
2259;SDS011;333;48.800;9.530;2023-03-04T00:31:45;57.53;;;37.03;;
2259;SDS011;333;48.800;9.530;2023-03-04T00:34:12;53.47;;;34.67;;
2259;SDS011;333;48.800;9.530;2023-03-04T00:36:40;56.50;;;36.40;;
2259;SDS011;333;48.800;9.530;2023-03-04T00:39:08;53.50;;;36.97;;
2259;SDS011;333;48.800;9.530;2023-03-04T00:41:36;50.60;;;37.20;;
2259;SDS011;333;48.800;9.530;2023-03-04T00:44:03;57.10;;;35.83;;
2259;SDS011;333;48.800;9.530;2023-03-04T00:46:30;60.00;;;35.47;;
2259;SDS011;333;48.800;9.530;2023-03-04T00:48:59;51.73;;;35.37;;
2259;SDS011;333;48.800;9.530;2023-03-04T00:51:26;55.17;;;37.07;;
2259;SDS011;333;48.800;9.530;2023-03-04T00:53:53;53.23;;;36.00;;
2259;SDS011;333;48.800;9.530;2023-03-04T00:56:20;60.33;;;38.70;;
2259;SDS011;333;48.800;9.530;2023-03-04T00:58:47;55.77;;;34.33;;
2259;SDS011;333;48.800;9.530;2023-03-04T01:01:14;55.03;;;34.47;;
2259;SDS011;333;48.800;9.530;2023-03-04T01:03:41;60.60;;;36.40;;
2259;SDS011;333;48.800;9.530;2023-03-04T01:06:10;51.60;;;35.40;;
2259;SDS011;333;48.800;9.530;2023-03-04T01:08:37;53.50;;;35.53;;
2259;SDS011;333;48.800;9.530;2023-03-04T01:11:05;51.33;;;35.80;;
2259;SDS011;333;48.800;9.530;2023-03-04T01:13:32;62.43;;;38.13;;
2259;SDS011;333;48.800;9.530;2023-03-04T01:16:00;59.47;;;35.20;;
2259;SDS011;333;48.800;9.530;2023-03-04T01:18:27;62.80;;;39.83;;
2259;SDS011;333;48.800;9.530;2023-03-04T01:20:54;59.07;;;36.20;;
2259;SDS011;333;48.800;9.530;2023-03-04T01:23:23;63.60;;;35.47;;
2259;SDS011;333;48.800;9.530;2023-03-04T01:25:50;55.20;;;35.40;;
2259;SDS011;333;48.800;9.530;2023-03-04T01:28:18;56.53;;;36.37;;
2259;SDS011;333;48.800;9.530;2023-03-04T01:30:45;60.83;;;37.17;;
2259;SDS011;333;48.800;9.530;2023-03-04T01:33:12;58.43;;;37.67;;
2259;SDS011;333;48.800;9.530;2023-03-04T01:35:39;61.20;;;37.27;;
2259;SDS011;333;48.800;9.530;2023-03-04T01:38:06;67.83;;;37.40;;
2259;SDS011;333;48.800;9.530;2023-03-04T01:40:35;64.10;;;36.83;;
2259;SDS011;333;48.800;9.530;2023-03-04T01:43:02;53.57;;;33.83;;
2259;SDS011;333;48.800;9.530;2023-03-04T01:45:30;54.10;;;37.80;;
2259;SDS011;333;48.800;9.530;2023-03-04T01:47:58;63.37;;;36.60;;
2259;SDS011;333;48.800;9.530;2023-03-04T01:50:26;63.57;;;38.87;;
2259;SDS011;333;48.800;9.530;2023-03-04T01:52:54;66.20;;;41.20;;
2259;SDS011;333;48.800;9.530;2023-03-04T01:55:22;66.30;;;40.23;;
2259;SDS011;333;48.800;9.530;2023-03-04T01:57:51;55.23;;;39.73;;
2259;SDS011;333;48.800;9.530;2023-03-04T02:00:23;70.27;;;38.70;;
2259;SDS011;333;48.800;9.530;2023-03-04T02:02:51;61.73;;;36.87;;
2259;SDS011;333;48.800;9.530;2023-03-04T02:05:19;68.23;;;39.20;;
2259;SDS011;333;48.800;9.530;2023-03-04T02:07:47;58.60;;;38.50;;
2259;SDS011;333;48.800;9.530;2023-03-04T02:10:14;60.67;;;36.83;;
2259;SDS011;333;48.800;9.530;2023-03-04T02:12:42;64.40;;;37.37;;
2259;SDS011;333;48.800;9.530;2023-03-04T02:15:11;68.80;;;38.23;;
2259;SDS011;333;48.800;9.530;2023-03-04T02:17:39;58.57;;;37.67;;
2259;SDS011;333;48.800;9.530;2023-03-04T02:20:09;58.70;;;38.63;;
2259;SDS011;333;48.800;9.530;2023-03-04T02:22:40;55.67;;;36.93;;
2259;SDS011;333;48.800;9.530;2023-03-04T02:25:10;61.23;;;38.10;;
2259;SDS011;333;48.800;9.530;2023-03-04T02:27:40;78.63;;;42.60;;
2259;SDS011;333;48.800;9.530;2023-03-04T02:30:08;61.03;;;39.53;;
2259;SDS011;333;48.800;9.530;2023-03-04T02:32:36;55.10;;;38.53;;
2259;SDS011;333;48.800;9.530;2023-03-04T02:35:03;62.60;;;38.53;;
2259;SDS011;333;48.800;9.530;2023-03-04T02:37:31;58.27;;;38.20;;
2259;SDS011;333;48.800;9.530;2023-03-04T02:39:58;63.63;;;37.10;;
2259;SDS011;333;48.800;9.530;2023-03-04T02:42:25;61.93;;;36.03;;
2259;SDS011;333;48.800;9.530;2023-03-04T02:44:59;58.53;;;38.00;;
2259;SDS011;333;48.800;9.530;2023-03-04T02:47:26;58.50;;;34.50;;
2259;SDS011;333;48.800;9.530;2023-03-04T02:49:54;57.03;;;39.27;;
2259;SDS011;333;48.800;9.530;2023-03-04T02:52:24;61.70;;;37.87;;
2259;SDS011;333;48.800;9.530;2023-03-04T02:54:51;63.83;;;36.73;;
2259;SDS011;333;48.800;9.530;2023-03-04T02:57:18;65.83;;;40.10;;
2259;SDS011;333;48.800;9.530;2023-03-04T02:59:45;64.27;;;39.13;;
2259;SDS011;333;48.800;9.530;2023-03-04T03:02:14;63.47;;;37.00;;
2259;SDS011;333;48.800;9.530;2023-03-04T03:04:41;54.97;;;37.03;;
2259;SDS011;333;48.800;9.530;2023-03-04T03:07:08;67.17;;;36.57;;
2259;SDS011;333;48.800;9.530;2023-03-04T03:09:35;63.57;;;39.03;;
2259;SDS011;333;48.800;9.530;2023-03-04T03:12:02;59.20;;;38.20;;
2259;SDS011;333;48.800;9.530;2023-03-04T03:14:30;65.17;;;39.70;;
2259;SDS011;333;48.800;9.530;2023-03-04T03:16:57;68.33;;;39.53;;
2259;SDS011;333;48.800;9.530;2023-03-04T03:19:25;60.30;;;39.43;;
2259;SDS011;333;48.800;9.530;2023-03-04T03:21:52;50.83;;;34.57;;
2259;SDS011;333;48.800;9.530;2023-03-04T03:24:20;60.23;;;39.97;;
2259;SDS011;333;48.800;9.530;2023-03-04T03:26:47;72.83;;;39.03;;
2259;SDS011;333;48.800;9.530;2023-03-04T03:29:14;61.37;;;37.47;;
2259;SDS011;333;48.800;9.530;2023-03-04T03:31:41;60.53;;;38.47;;
2259;SDS011;333;48.800;9.530;2023-03-04T03:34:08;60.03;;;37.90;;
2259;SDS011;333;48.800;9.530;2023-03-04T03:36:37;61.10;;;40.57;;
2259;SDS011;333;48.800;9.530;2023-03-04T03:39:04;62.83;;;38.97;;
2259;SDS011;333;48.800;9.530;2023-03-04T03:41:31;58.97;;;34.97;;
2259;SDS011;333;48.800;9.530;2023-03-04T03:43:58;63.03;;;38.27;;
2259;SDS011;333;48.800;9.530;2023-03-04T03:46:25;71.37;;;37.67;;
2259;SDS011;333;48.800;9.530;2023-03-04T03:48:53;71.13;;;38.10;;
2259;SDS011;333;48.800;9.530;2023-03-04T03:51:21;61.93;;;37.07;;
2259;SDS011;333;48.800;9.530;2023-03-04T03:53:49;62.07;;;36.60;;
2259;SDS011;333;48.800;9.530;2023-03-04T03:56:16;58.10;;;38.80;;
2259;SDS011;333;48.800;9.530;2023-03-04T03:58:43;55.80;;;36.47;;
2259;SDS011;333;48.800;9.530;2023-03-04T04:01:11;64.03;;;35.63;;
2259;SDS011;333;48.800;9.530;2023-03-04T04:03:38;60.97;;;39.47;;
2259;SDS011;333;48.800;9.530;2023-03-04T04:06:05;51.73;;;35.13;;
2259;SDS011;333;48.800;9.530;2023-03-04T04:08:32;58.60;;;35.33;;
2259;SDS011;333;48.800;9.530;2023-03-04T04:11:01;58.70;;;35.17;;
2259;SDS011;333;48.800;9.530;2023-03-04T04:13:28;61.03;;;37.47;;
2259;SDS011;333;48.800;9.530;2023-03-04T04:15:55;63.63;;;38.53;;
2259;SDS011;333;48.800;9.530;2023-03-04T04:18:23;74.60;;;42.73;;
2259;SDS011;333;48.800;9.530;2023-03-04T04:20:50;74.57;;;38.07;;
2259;SDS011;333;48.800;9.530;2023-03-04T04:23:18;62.17;;;40.27;;
2259;SDS011;333;48.800;9.530;2023-03-04T04:25:45;66.00;;;38.73;;
2259;SDS011;333;48.800;9.530;2023-03-04T04:28:14;68.50;;;39.87;;
2259;SDS011;333;48.800;9.530;2023-03-04T04:30:41;63.30;;;41.50;;
2259;SDS011;333;48.800;9.530;2023-03-04T04:33:08;63.40;;;40.30;;
2259;SDS011;333;48.800;9.530;2023-03-04T04:35:36;68.87;;;40.30;;
2259;SDS011;333;48.800;9.530;2023-03-04T04:38:03;63.90;;;39.33;;
2259;SDS011;333;48.800;9.530;2023-03-04T04:40:30;58.93;;;37.10;;
2259;SDS011;333;48.800;9.530;2023-03-04T04:42:58;75.23;;;39.67;;
2259;SDS011;333;48.800;9.530;2023-03-04T04:45:26;63.73;;;37.53;;
2259;SDS011;333;48.800;9.530;2023-03-04T04:47:54;58.23;;;39.23;;
2259;SDS011;333;48.800;9.530;2023-03-04T04:50:21;61.40;;;38.67;;
2259;SDS011;333;48.800;9.530;2023-03-04T04:52:48;64.53;;;37.70;;
2259;SDS011;333;48.800;9.530;2023-03-04T04:55:16;67.23;;;37.70;;
2259;SDS011;333;48.800;9.530;2023-03-04T04:57:43;61.57;;;38.50;;
2259;SDS011;333;48.800;9.530;2023-03-04T05:00:10;60.50;;;36.70;;
2259;SDS011;333;48.800;9.530;2023-03-04T05:02:39;62.07;;;35.47;;
2259;SDS011;333;48.800;9.530;2023-03-04T05:05:06;58.40;;;37.70;;
2259;SDS011;333;48.800;9.530;2023-03-04T05:07:34;61.47;;;37.17;;
2259;SDS011;333;48.800;9.530;2023-03-04T05:10:01;58.70;;;38.90;;
2259;SDS011;333;48.800;9.530;2023-03-04T05:12:28;69.03;;;42.70;;
2259;SDS011;333;48.800;9.530;2023-03-04T05:14:55;58.00;;;37.13;;
2259;SDS011;333;48.800;9.530;2023-03-04T05:17:22;75.17;;;37.00;;
2259;SDS011;333;48.800;9.530;2023-03-04T05:19:51;66.70;;;38.63;;
2259;SDS011;333;48.800;9.530;2023-03-04T05:22:18;64.30;;;41.00;;
2259;SDS011;333;48.800;9.530;2023-03-04T05:24:45;75.57;;;43.80;;
2259;SDS011;333;48.800;9.530;2023-03-04T05:27:12;65.97;;;38.70;;
2259;SDS011;333;48.800;9.530;2023-03-04T05:29:39;70.83;;;40.30;;
2259;SDS011;333;48.800;9.530;2023-03-04T05:32:08;74.27;;;41.37;;
2259;SDS011;333;48.800;9.530;2023-03-04T05:34:36;67.40;;;39.70;;
2259;SDS011;333;48.800;9.530;2023-03-04T05:37:04;68.70;;;38.93;;
2259;SDS011;333;48.800;9.530;2023-03-04T05:39:31;67.30;;;38.63;;
2259;SDS011;333;48.800;9.530;2023-03-04T05:41:58;63.13;;;39.53;;
2259;SDS011;333;48.800;9.530;2023-03-04T05:44:25;53.77;;;34.73;;
2259;SDS011;333;48.800;9.530;2023-03-04T05:46:53;69.23;;;38.30;;
2259;SDS011;333;48.800;9.530;2023-03-04T05:49:20;72.20;;;41.17;;
2259;SDS011;333;48.800;9.530;2023-03-04T05:51:47;65.37;;;40.10;;
2259;SDS011;333;48.800;9.530;2023-03-04T05:54:16;75.70;;;41.00;;
2259;SDS011;333;48.800;9.530;2023-03-04T05:56:44;65.20;;;41.17;;
2259;SDS011;333;48.800;9.530;2023-03-04T05:59:11;66.70;;;42.07;;
2259;SDS011;333;48.800;9.530;2023-03-04T06:01:44;63.60;;;38.53;;
2259;SDS011;333;48.800;9.530;2023-03-04T06:04:11;65.03;;;38.60;;
2259;SDS011;333;48.800;9.530;2023-03-04T06:06:38;66.93;;;39.20;;
2259;SDS011;333;48.800;9.530;2023-03-04T06:09:05;64.70;;;37.83;;
2259;SDS011;333;48.800;9.530;2023-03-04T06:11:34;63.57;;;38.73;;
2259;SDS011;333;48.800;9.530;2023-03-04T06:14:01;69.70;;;39.10;;
2259;SDS011;333;48.800;9.530;2023-03-04T06:16:28;65.27;;;41.23;;
2259;SDS011;333;48.800;9.530;2023-03-04T06:18:55;65.10;;;40.57;;
2259;SDS011;333;48.800;9.530;2023-03-04T06:21:22;59.00;;;39.83;;
2259;SDS011;333;48.800;9.530;2023-03-04T06:23:50;64.37;;;40.23;;
2259;SDS011;333;48.800;9.530;2023-03-04T06:26:17;69.67;;;40.83;;
2259;SDS011;333;48.800;9.530;2023-03-04T06:28:45;61.00;;;38.17;;
2259;SDS011;333;48.800;9.530;2023-03-04T06:31:12;65.77;;;37.80;;
2259;SDS011;333;48.800;9.530;2023-03-04T06:33:39;65.83;;;38.67;;
2259;SDS011;333;48.800;9.530;2023-03-04T06:36:07;60.57;;;38.27;;
2259;SDS011;333;48.800;9.530;2023-03-04T06:38:34;65.50;;;39.87;;
2259;SDS011;333;48.800;9.530;2023-03-04T06:41:07;65.97;;;41.77;;
2259;SDS011;333;48.800;9.530;2023-03-04T06:43:35;74.33;;;41.23;;
2259;SDS011;333;48.800;9.530;2023-03-04T06:46:04;64.17;;;41.37;;
2259;SDS011;333;48.800;9.530;2023-03-04T06:48:31;73.73;;;44.37;;
2259;SDS011;333;48.800;9.530;2023-03-04T06:51:03;68.37;;;40.97;;
2259;SDS011;333;48.800;9.530;2023-03-04T06:53:30;64.87;;;41.87;;
2259;SDS011;333;48.800;9.530;2023-03-04T06:55:57;71.10;;;43.67;;
2259;SDS011;333;48.800;9.530;2023-03-04T06:58:24;61.83;;;39.63;;
2259;SDS011;333;48.800;9.530;2023-03-04T07:00:51;66.53;;;41.50;;
2259;SDS011;333;48.800;9.530;2023-03-04T07:03:20;68.67;;;40.20;;
2259;SDS011;333;48.800;9.530;2023-03-04T07:05:48;71.20;;;45.13;;
2259;SDS011;333;48.800;9.530;2023-03-04T07:08:15;73.23;;;44.73;;
2259;SDS011;333;48.800;9.530;2023-03-04T07:10:42;64.33;;;39.80;;
2259;SDS011;333;48.800;9.530;2023-03-04T07:13:10;67.27;;;41.10;;
2259;SDS011;333;48.800;9.530;2023-03-04T07:15:37;56.77;;;35.60;;
2259;SDS011;333;48.800;9.530;2023-03-04T07:18:04;63.23;;;36.07;;
2259;SDS011;333;48.800;9.530;2023-03-04T07:20:32;56.53;;;36.53;;
2259;SDS011;333;48.800;9.530;2023-03-04T07:22:59;52.47;;;36.83;;
2259;SDS011;333;48.800;9.530;2023-03-04T07:25:27;64.80;;;37.57;;
2259;SDS011;333;48.800;9.530;2023-03-04T07:27:54;56.80;;;32.70;;
2259;SDS011;333;48.800;9.530;2023-03-04T07:30:21;44.63;;;30.60;;
2259;SDS011;333;48.800;9.530;2023-03-04T07:32:48;53.73;;;32.37;;
2259;SDS011;333;48.800;9.530;2023-03-04T07:35:15;55.63;;;36.50;;
2259;SDS011;333;48.800;9.530;2023-03-04T07:37:44;44.10;;;31.77;;
2259;SDS011;333;48.800;9.530;2023-03-04T07:40:11;48.03;;;29.40;;
2259;SDS011;333;48.800;9.530;2023-03-04T07:42:38;46.60;;;31.70;;
2259;SDS011;333;48.800;9.530;2023-03-04T07:45:06;46.97;;;29.03;;
2259;SDS011;333;48.800;9.530;2023-03-04T07:47:33;46.27;;;30.00;;
2259;SDS011;333;48.800;9.530;2023-03-04T07:50:00;58.73;;;33.80;;
2259;SDS011;333;48.800;9.530;2023-03-04T07:52:28;54.80;;;31.80;;
2259;SDS011;333;48.800;9.530;2023-03-04T07:54:56;47.90;;;32.10;;
2259;SDS011;333;48.800;9.530;2023-03-04T07:57:23;48.40;;;28.80;;
2259;SDS011;333;48.800;9.530;2023-03-04T07:59:51;39.27;;;27.27;;
2259;SDS011;333;48.800;9.530;2023-03-04T08:02:18;44.30;;;28.53;;
2259;SDS011;333;48.800;9.530;2023-03-04T08:04:45;41.00;;;28.10;;
2259;SDS011;333;48.800;9.530;2023-03-04T08:07:12;46.83;;;29.00;;
2259;SDS011;333;48.800;9.530;2023-03-04T08:09:39;48.17;;;30.93;;
2259;SDS011;333;48.800;9.530;2023-03-04T08:12:08;39.47;;;26.23;;
2259;SDS011;333;48.800;9.530;2023-03-04T08:14:35;45.83;;;28.13;;
2259;SDS011;333;48.800;9.530;2023-03-04T08:17:02;39.43;;;26.37;;
2259;SDS011;333;48.800;9.530;2023-03-04T08:19:29;39.63;;;25.87;;
2259;SDS011;333;48.800;9.530;2023-03-04T08:21:56;38.93;;;24.23;;
2259;SDS011;333;48.800;9.530;2023-03-04T08:24:23;42.80;;;27.73;;
2259;SDS011;333;48.800;9.530;2023-03-04T08:26:51;35.67;;;25.57;;
2259;SDS011;333;48.800;9.530;2023-03-04T08:29:20;42.43;;;27.30;;
2259;SDS011;333;48.800;9.530;2023-03-04T08:31:47;39.03;;;28.00;;
2259;SDS011;333;48.800;9.530;2023-03-04T08:34:15;48.80;;;29.90;;
2259;SDS011;333;48.800;9.530;2023-03-04T08:36:42;47.10;;;27.57;;
2259;SDS011;333;48.800;9.530;2023-03-04T08:39:10;42.80;;;30.40;;
2259;SDS011;333;48.800;9.530;2023-03-04T08:41:38;42.30;;;27.60;;
2259;SDS011;333;48.800;9.530;2023-03-04T08:44:05;37.60;;;27.93;;
2259;SDS011;333;48.800;9.530;2023-03-04T08:46:35;41.97;;;28.30;;
2259;SDS011;333;48.800;9.530;2023-03-04T08:49:03;45.70;;;30.10;;
2259;SDS011;333;48.800;9.530;2023-03-04T08:51:30;47.80;;;29.97;;
2259;SDS011;333;48.800;9.530;2023-03-04T08:53:59;48.17;;;29.30;;
2259;SDS011;333;48.800;9.530;2023-03-04T08:56:26;43.70;;;27.00;;
2259;SDS011;333;48.800;9.530;2023-03-04T08:58:54;40.27;;;26.90;;
2259;SDS011;333;48.800;9.530;2023-03-04T09:01:21;45.90;;;30.20;;
2259;SDS011;333;48.800;9.530;2023-03-04T09:03:50;43.17;;;29.50;;
2259;SDS011;333;48.800;9.530;2023-03-04T09:06:18;43.27;;;28.30;;
2259;SDS011;333;48.800;9.530;2023-03-04T09:08:45;45.53;;;29.93;;
2259;SDS011;333;48.800;9.530;2023-03-04T09:11:12;42.60;;;27.83;;
2259;SDS011;333;48.800;9.530;2023-03-04T09:13:40;42.70;;;28.17;;
2259;SDS011;333;48.800;9.530;2023-03-04T09:16:07;35.67;;;26.70;;
2259;SDS011;333;48.800;9.530;2023-03-04T09:18:35;43.07;;;26.43;;
2259;SDS011;333;48.800;9.530;2023-03-04T09:21:05;36.17;;;24.37;;
2259;SDS011;333;48.800;9.530;2023-03-04T09:23:32;38.77;;;23.63;;
2259;SDS011;333;48.800;9.530;2023-03-04T09:25:59;42.07;;;26.60;;
2259;SDS011;333;48.800;9.530;2023-03-04T09:28:26;36.23;;;23.93;;
2259;SDS011;333;48.800;9.530;2023-03-04T09:30:53;36.17;;;23.17;;
2259;SDS011;333;48.800;9.530;2023-03-04T09:33:20;34.20;;;21.70;;
2259;SDS011;333;48.800;9.530;2023-03-04T09:35:48;32.77;;;21.03;;
2259;SDS011;333;48.800;9.530;2023-03-04T09:38:16;34.53;;;21.47;;
2259;SDS011;333;48.800;9.530;2023-03-04T09:40:44;34.77;;;22.97;;
2259;SDS011;333;48.800;9.530;2023-03-04T09:43:16;33.97;;;20.60;;
2259;SDS011;333;48.800;9.530;2023-03-04T09:45:45;27.13;;;19.47;;
2259;SDS011;333;48.800;9.530;2023-03-04T09:48:14;31.90;;;19.50;;
2259;SDS011;333;48.800;9.530;2023-03-04T09:50:43;36.27;;;20.33;;
2259;SDS011;333;48.800;9.530;2023-03-04T09:53:15;37.20;;;19.53;;
2259;SDS011;333;48.800;9.530;2023-03-04T09:55:47;30.50;;;19.17;;
2259;SDS011;333;48.800;9.530;2023-03-04T09:58:18;27.97;;;19.13;;
2259;SDS011;333;48.800;9.530;2023-03-04T10:00:49;26.43;;;18.13;;
2259;SDS011;333;48.800;9.530;2023-03-04T10:03:18;28.67;;;19.63;;
2259;SDS011;333;48.800;9.530;2023-03-04T10:05:48;30.63;;;17.67;;
2259;SDS011;333;48.800;9.530;2023-03-04T10:11:01;35.10;;;19.73;;
2259;SDS011;333;48.800;9.530;2023-03-04T10:13:30;30.00;;;19.63;;
2259;SDS011;333;48.800;9.530;2023-03-04T10:16:01;34.47;;;19.47;;
2259;SDS011;333;48.800;9.530;2023-03-04T10:18:30;27.73;;;19.57;;
2259;SDS011;333;48.800;9.530;2023-03-04T10:21:01;29.00;;;18.63;;
2259;SDS011;333;48.800;9.530;2023-03-04T10:23:30;31.83;;;19.40;;
2259;SDS011;333;48.800;9.530;2023-03-04T10:25:58;30.90;;;18.87;;
2259;SDS011;333;48.800;9.530;2023-03-04T10:28:29;27.73;;;17.90;;
2259;SDS011;333;48.800;9.530;2023-03-04T10:30:58;26.20;;;18.97;;
2259;SDS011;333;48.800;9.530;2023-03-04T10:33:27;31.67;;;19.70;;
2259;SDS011;333;48.800;9.530;2023-03-04T10:35:58;30.30;;;19.00;;
2259;SDS011;333;48.800;9.530;2023-03-04T10:38:27;30.43;;;19.33;;
2259;SDS011;333;48.800;9.530;2023-03-04T10:40:55;28.13;;;19.60;;
2259;SDS011;333;48.800;9.530;2023-03-04T10:43:23;29.27;;;19.73;;
2259;SDS011;333;48.800;9.530;2023-03-04T10:45:54;27.73;;;20.20;;
2259;SDS011;333;48.800;9.530;2023-03-04T10:48:23;28.70;;;19.47;;
2259;SDS011;333;48.800;9.530;2023-03-04T10:50:51;35.03;;;21.70;;
2259;SDS011;333;48.800;9.530;2023-03-04T10:53:23;30.10;;;19.70;;
2259;SDS011;333;48.800;9.530;2023-03-04T10:55:51;29.10;;;19.10;;
2259;SDS011;333;48.800;9.530;2023-03-04T10:58:18;18.67;;;13.57;;
2259;SDS011;333;48.800;9.530;2023-03-04T11:00:49;27.30;;;17.87;;
2259;SDS011;333;48.800;9.530;2023-03-04T11:03:29;27.90;;;18.63;;
2259;SDS011;333;48.800;9.530;2023-03-04T11:06:16;28.80;;;19.37;;
2259;SDS011;333;48.800;9.530;2023-03-04T11:08:43;25.17;;;18.33;;
2259;SDS011;333;48.800;9.530;2023-03-04T11:11:21;30.60;;;20.07;;
2259;SDS011;333;48.800;9.530;2023-03-04T11:13:52;30.20;;;18.00;;
2259;SDS011;333;48.800;9.530;2023-03-04T11:16:23;27.03;;;17.40;;
2259;SDS011;333;48.800;9.530;2023-03-04T11:18:52;26.80;;;17.40;;
2259;SDS011;333;48.800;9.530;2023-03-04T11:21:21;24.07;;;19.70;;
2259;SDS011;333;48.800;9.530;2023-03-04T11:23:48;20.50;;;16.17;;
2259;SDS011;333;48.800;9.530;2023-03-04T11:26:17;26.33;;;17.70;;
2259;SDS011;333;48.800;9.530;2023-03-04T11:28:46;27.40;;;18.40;;
2259;SDS011;333;48.800;9.530;2023-03-04T11:31:16;29.30;;;18.37;;
2259;SDS011;333;48.800;9.530;2023-03-04T11:33:45;29.50;;;22.57;;
2259;SDS011;333;48.800;9.530;2023-03-04T11:36:20;29.23;;;19.17;;
2259;SDS011;333;48.800;9.530;2023-03-04T11:38:49;22.50;;;15.80;;
2259;SDS011;333;48.800;9.530;2023-03-04T11:41:18;22.07;;;15.40;;
2259;SDS011;333;48.800;9.530;2023-03-04T11:43:46;32.43;;;20.57;;
2259;SDS011;333;48.800;9.530;2023-03-04T11:46:18;27.47;;;19.63;;
2259;SDS011;333;48.800;9.530;2023-03-04T11:48:52;27.33;;;19.10;;
2259;SDS011;333;48.800;9.530;2023-03-04T11:51:24;30.10;;;18.80;;
2259;SDS011;333;48.800;9.530;2023-03-04T11:54:02;29.00;;;19.70;;
2259;SDS011;333;48.800;9.530;2023-03-04T11:56:34;34.10;;;19.60;;
2259;SDS011;333;48.800;9.530;2023-03-04T11:59:16;28.00;;;20.50;;
2259;SDS011;333;48.800;9.530;2023-03-04T12:01:47;34.83;;;20.10;;
2259;SDS011;333;48.800;9.530;2023-03-04T12:04:23;32.00;;;19.87;;
2259;SDS011;333;48.800;9.530;2023-03-04T12:06:59;29.50;;;19.00;;
2259;SDS011;333;48.800;9.530;2023-03-04T12:09:35;29.10;;;20.27;;
2259;SDS011;333;48.800;9.530;2023-03-04T12:12:11;36.80;;;22.20;;
2259;SDS011;333;48.800;9.530;2023-03-04T12:14:46;32.30;;;17.73;;
2259;SDS011;333;48.800;9.530;2023-03-04T12:17:28;31.10;;;20.73;;
2259;SDS011;333;48.800;9.530;2023-03-04T12:20:14;26.97;;;19.07;;
2259;SDS011;333;48.800;9.530;2023-03-04T12:22:45;32.30;;;20.30;;
2259;SDS011;333;48.800;9.530;2023-03-04T12:28:11;29.30;;;21.20;;
2259;SDS011;333;48.800;9.530;2023-03-04T12:30:46;30.27;;;19.47;;
2259;SDS011;333;48.800;9.530;2023-03-04T12:33:19;30.93;;;19.73;;
2259;SDS011;333;48.800;9.530;2023-03-04T12:35:51;29.70;;;19.97;;
2259;SDS011;333;48.800;9.530;2023-03-04T12:38:32;28.40;;;20.43;;
2259;SDS011;333;48.800;9.530;2023-03-04T12:41:03;32.00;;;20.20;;
2259;SDS011;333;48.800;9.530;2023-03-04T12:43:41;28.77;;;19.90;;
2259;SDS011;333;48.800;9.530;2023-03-04T12:46:18;30.53;;;20.10;;
2259;SDS011;333;48.800;9.530;2023-03-04T12:48:49;33.77;;;20.80;;
2259;SDS011;333;48.800;9.530;2023-03-04T12:51:24;30.43;;;19.60;;
2259;SDS011;333;48.800;9.530;2023-03-04T12:53:59;30.30;;;20.60;;
2259;SDS011;333;48.800;9.530;2023-03-04T12:56:30;28.47;;;20.03;;
2259;SDS011;333;48.800;9.530;2023-03-04T12:58:59;27.67;;;19.30;;
2259;SDS011;333;48.800;9.530;2023-03-04T13:01:28;26.17;;;18.63;;
2259;SDS011;333;48.800;9.530;2023-03-04T13:03:58;29.00;;;19.33;;
2259;SDS011;333;48.800;9.530;2023-03-04T13:06:30;39.80;;;25.60;;
2259;SDS011;333;48.800;9.530;2023-03-04T13:09:03;35.20;;;24.03;;
2259;SDS011;333;48.800;9.530;2023-03-04T13:11:37;27.20;;;19.53;;
2259;SDS011;333;48.800;9.530;2023-03-04T13:14:06;32.20;;;20.43;;
2259;SDS011;333;48.800;9.530;2023-03-04T13:16:34;29.93;;;22.13;;
2259;SDS011;333;48.800;9.530;2023-03-04T13:19:03;32.30;;;23.30;;
2259;SDS011;333;48.800;9.530;2023-03-04T13:21:50;39.70;;;21.33;;
2259;SDS011;333;48.800;9.530;2023-03-04T13:29:47;33.63;;;22.73;;
2259;SDS011;333;48.800;9.530;2023-03-04T13:32:24;41.60;;;24.50;;
2259;SDS011;333;48.800;9.530;2023-03-04T13:35:01;32.03;;;21.97;;
2259;SDS011;333;48.800;9.530;2023-03-04T13:37:29;38.40;;;24.87;;
2259;SDS011;333;48.800;9.530;2023-03-04T13:42:43;35.60;;;23.27;;
2259;SDS011;333;48.800;9.530;2023-03-04T13:45:31;39.05;;;26.55;;
2259;SDS011;333;48.800;9.530;2023-03-04T13:47:58;39.03;;;25.13;;
2259;SDS011;333;48.800;9.530;2023-03-04T13:50:35;41.83;;;25.20;;
2259;SDS011;333;48.800;9.530;2023-03-04T13:58:50;36.27;;;24.20;;
2259;SDS011;333;48.800;9.530;2023-03-04T14:01:24;38.53;;;25.47;;
2259;SDS011;333;48.800;9.530;2023-03-04T14:03:52;37.33;;;25.43;;
2259;SDS011;333;48.800;9.530;2023-03-04T14:06:20;38.60;;;26.17;;
2259;SDS011;333;48.800;9.530;2023-03-04T14:08:48;40.93;;;25.60;;
2259;SDS011;333;48.800;9.530;2023-03-04T14:11:16;39.40;;;26.13;;
2259;SDS011;333;48.800;9.530;2023-03-04T14:13:45;36.20;;;24.67;;
2259;SDS011;333;48.800;9.530;2023-03-04T14:16:12;46.67;;;27.17;;
2259;SDS011;333;48.800;9.530;2023-03-04T14:18:46;39.77;;;27.27;;
2259;SDS011;333;48.800;9.530;2023-03-04T14:21:22;37.73;;;25.70;;
2259;SDS011;333;48.800;9.530;2023-03-04T14:23:58;40.87;;;26.67;;
2259;SDS011;333;48.800;9.530;2023-03-04T14:26:25;40.70;;;24.33;;
2259;SDS011;333;48.800;9.530;2023-03-04T14:28:55;37.20;;;24.07;;
2259;SDS011;333;48.800;9.530;2023-03-04T14:31:24;42.07;;;26.57;;
2259;SDS011;333;48.800;9.530;2023-03-04T14:33:56;39.90;;;24.73;;
2259;SDS011;333;48.800;9.530;2023-03-04T14:36:26;40.77;;;24.40;;
2259;SDS011;333;48.800;9.530;2023-03-04T14:38:54;45.10;;;24.67;;
2259;SDS011;333;48.800;9.530;2023-03-04T14:41:24;35.07;;;23.73;;
2259;SDS011;333;48.800;9.530;2023-03-04T14:43:53;37.23;;;24.83;;
2259;SDS011;333;48.800;9.530;2023-03-04T14:46:22;37.63;;;24.07;;
2259;SDS011;333;48.800;9.530;2023-03-04T14:48:52;35.83;;;24.90;;
2259;SDS011;333;48.800;9.530;2023-03-04T14:51:29;37.40;;;25.13;;
2259;SDS011;333;48.800;9.530;2023-03-04T14:53:57;42.73;;;28.00;;
2259;SDS011;333;48.800;9.530;2023-03-04T14:56:28;39.40;;;25.37;;
2259;SDS011;333;48.800;9.530;2023-03-04T14:58:55;38.40;;;25.40;;
2259;SDS011;333;48.800;9.530;2023-03-04T15:01:27;38.40;;;25.20;;
2259;SDS011;333;48.800;9.530;2023-03-04T15:03:55;42.97;;;24.50;;
2259;SDS011;333;48.800;9.530;2023-03-04T15:06:23;38.97;;;24.93;;
2259;SDS011;333;48.800;9.530;2023-03-04T15:08:56;31.77;;;20.87;;
2259;SDS011;333;48.800;9.530;2023-03-04T15:11:25;36.07;;;25.43;;
2259;SDS011;333;48.800;9.530;2023-03-04T15:13:54;35.80;;;24.10;;
2259;SDS011;333;48.800;9.530;2023-03-04T15:16:21;37.70;;;23.87;;
2259;SDS011;333;48.800;9.530;2023-03-04T15:18:52;36.83;;;23.57;;
2259;SDS011;333;48.800;9.530;2023-03-04T15:21:30;32.77;;;23.80;;
2259;SDS011;333;48.800;9.530;2023-03-04T15:23:59;34.90;;;22.87;;
2259;SDS011;333;48.800;9.530;2023-03-04T15:26:27;35.73;;;23.23;;
2259;SDS011;333;48.800;9.530;2023-03-04T15:28:54;38.60;;;23.40;;
2259;SDS011;333;48.800;9.530;2023-03-04T15:31:22;37.50;;;24.00;;